createdAt,value
2018-09-18T00:01:06.205Z,14.68
2018-09-18T00:03:33.398Z,9.05
2018-09-18T00:06:00.596Z,8.80
2018-09-18T00:08:27.780Z,10.38
2018-09-18T00:10:54.975Z,11.83
2018-09-18T00:13:22.158Z,14.85
2018-09-18T00:15:49.371Z,10.00
2018-09-18T00:18:16.549Z,9.93
2018-09-18T00:20:43.754Z,9.23
2018-09-18T00:23:10.952Z,9.13
2018-09-18T00:25:38.177Z,13.22
2018-09-18T00:28:05.513Z,8.73
2018-09-18T00:30:32.719Z,12.30
2018-09-18T00:32:59.913Z,14.60
2018-09-18T00:35:27.099Z,10.45
2018-09-18T00:37:54.291Z,10.08
2018-09-18T00:40:21.479Z,10.23
2018-09-18T00:42:48.672Z,10.60
2018-09-18T00:45:15.857Z,10.03
2018-09-18T00:47:43.046Z,11.57
2018-09-18T00:50:10.327Z,9.80
2018-09-18T00:52:37.646Z,13.60
2018-09-18T00:55:04.889Z,9.28
2018-09-18T00:57:32.247Z,9.75
2018-09-18T00:59:59.456Z,10.28
2018-09-18T01:02:26.684Z,9.93
2018-09-18T01:04:53.887Z,9.93
2018-09-18T01:07:21.130Z,13.30
2018-09-18T01:09:48.304Z,8.85
2018-09-18T01:12:15.523Z,9.73
2018-09-18T01:14:42.723Z,9.60
2018-09-18T01:17:09.916Z,8.25
2018-09-18T01:19:37.154Z,9.30
2018-09-18T01:22:04.328Z,10.10
2018-09-18T01:24:31.559Z,8.90
2018-09-18T01:26:58.730Z,9.10
2018-09-18T01:29:25.914Z,8.85
2018-09-18T01:31:53.213Z,10.50
2018-09-18T01:34:20.386Z,9.30
2018-09-18T01:36:47.573Z,9.40
2018-09-18T01:39:14.771Z,10.20
2018-09-18T01:41:41.961Z,8.38
2018-09-18T01:44:09.522Z,9.95
2018-09-18T01:46:36.891Z,8.68
2018-09-18T01:49:04.111Z,10.72
2018-09-18T01:51:31.360Z,10.90
2018-09-18T01:53:58.532Z,11.33
2018-09-18T01:56:25.746Z,15.70
2018-09-18T01:58:52.939Z,9.58
2018-09-18T02:01:20.130Z,13.95
2018-09-18T02:03:47.314Z,10.00
2018-09-18T02:06:14.522Z,24.70
2018-09-18T02:08:41.715Z,11.53
2018-09-18T02:11:08.914Z,10.45
2018-09-18T02:13:36.096Z,12.35
2018-09-18T02:16:03.299Z,12.23
2018-09-18T02:18:30.496Z,12.85
2018-09-18T02:20:57.703Z,17.32
2018-09-18T02:23:24.891Z,15.10
2018-09-18T02:25:52.102Z,11.83
2018-09-18T02:28:19.298Z,12.88
2018-09-18T02:30:46.495Z,12.00
2018-09-18T02:33:13.689Z,9.85
2018-09-18T02:35:40.908Z,10.58
2018-09-18T02:38:08.127Z,12.35
2018-09-18T02:40:35.328Z,11.83
2018-09-18T02:43:02.545Z,11.00
2018-09-18T02:45:29.742Z,17.07
2018-09-18T02:47:56.934Z,10.75
2018-09-18T02:50:24.423Z,12.15
2018-09-18T02:52:51.620Z,12.70
2018-09-18T02:55:18.821Z,13.68
2018-09-18T02:57:46.120Z,14.07
2018-09-18T03:00:13.328Z,13.80
2018-09-18T03:02:40.514Z,14.60
2018-09-18T03:05:07.730Z,14.73
2018-09-18T03:07:35.026Z,14.23
2018-09-18T03:10:02.258Z,15.40
2018-09-18T03:12:29.455Z,16.50
2018-09-18T03:14:56.661Z,13.00
2018-09-18T03:17:23.872Z,13.58
2018-09-18T03:19:51.078Z,12.23
2018-09-18T03:22:18.276Z,12.23
2018-09-18T03:24:45.589Z,10.08
2018-09-18T03:27:12.815Z,10.85
2018-09-18T03:29:40.905Z,11.40
2018-09-18T03:32:08.211Z,13.00
2018-09-18T03:34:35.401Z,11.33
2018-09-18T03:37:02.605Z,11.78
2018-09-18T03:39:29.806Z,13.10
2018-09-18T03:41:57.019Z,18.07
2018-09-18T03:44:24.223Z,12.40
2018-09-18T03:46:51.412Z,12.98
2018-09-18T03:49:18.642Z,13.30
2018-09-18T03:51:45.855Z,12.73
2018-09-18T03:54:13.051Z,13.22
2018-09-18T03:56:40.264Z,13.75
2018-09-18T03:59:07.491Z,13.10
2018-09-18T04:01:34.683Z,13.40
2018-09-18T04:04:01.902Z,23.67
2018-09-18T04:06:29.081Z,13.48
2018-09-18T04:08:56.286Z,13.28
2018-09-18T04:11:23.503Z,12.00
2018-09-18T04:13:50.703Z,11.80
2018-09-18T04:16:17.990Z,12.25
2018-09-18T04:18:45.240Z,12.65
2018-09-18T04:21:12.473Z,13.15
2018-09-18T04:23:39.702Z,13.00
2018-09-18T04:26:06.928Z,13.55
2018-09-18T04:28:34.135Z,14.00
2018-09-18T04:31:01.340Z,13.85
2018-09-18T04:33:28.652Z,13.00
2018-09-18T04:35:55.850Z,13.45
2018-09-18T04:38:23.035Z,13.08
2018-09-18T04:40:50.250Z,13.68
2018-09-18T04:43:17.456Z,13.53
2018-09-18T04:45:44.707Z,13.38
2018-09-18T04:48:11.911Z,13.05
2018-09-18T04:50:39.116Z,13.85
2018-09-18T04:53:06.305Z,13.62
2018-09-18T04:55:33.613Z,12.75
2018-09-18T04:58:00.811Z,14.40
2018-09-18T05:00:28.013Z,15.35
2018-09-18T05:02:55.210Z,15.65
2018-09-18T05:05:22.420Z,16.20
2018-09-18T05:07:49.624Z,13.98
2018-09-18T05:10:16.921Z,12.55
2018-09-18T05:12:44.107Z,14.20
2018-09-18T05:15:11.313Z,14.03
2018-09-18T05:17:38.950Z,12.07
2018-09-18T05:20:06.156Z,14.40
2018-09-18T05:22:33.415Z,14.55
2018-09-18T05:25:00.639Z,13.53
2018-09-18T05:27:27.844Z,14.75
2018-09-18T05:29:55.043Z,14.85
2018-09-18T05:32:22.247Z,16.65
2018-09-18T05:34:49.443Z,15.85
2018-09-18T05:37:16.652Z,13.50
2018-09-18T05:39:43.860Z,15.38
2018-09-18T05:42:11.084Z,19.70
2018-09-18T05:44:38.322Z,15.13
2018-09-18T05:47:05.572Z,24.92
2018-09-18T05:49:32.795Z,16.90
2018-09-18T05:52:00.603Z,16.17
2018-09-18T05:54:27.846Z,13.08
2018-09-18T05:56:55.126Z,13.65
2018-09-18T05:59:22.358Z,19.17
2018-09-18T06:01:49.695Z,15.30
2018-09-18T06:04:16.896Z,12.82
2018-09-18T06:06:44.098Z,20.23
2018-09-18T06:09:12.259Z,17.95
2018-09-18T06:11:39.457Z,17.98
2018-09-18T06:14:06.658Z,16.30
2018-09-18T06:16:34.267Z,14.25
2018-09-18T06:19:01.516Z,19.67
2018-09-18T06:21:28.684Z,20.60
2018-09-18T06:23:55.885Z,21.25
2018-09-18T06:26:23.146Z,17.40
2018-09-18T06:28:50.309Z,17.30
2018-09-18T06:31:17.487Z,19.57
2018-09-18T06:33:44.728Z,16.48
2018-09-18T06:36:11.956Z,20.55
2018-09-18T06:38:39.283Z,16.67
2018-09-18T06:41:06.484Z,15.58
2018-09-18T06:43:33.686Z,14.98
2018-09-18T06:46:00.987Z,15.78
2018-09-18T06:48:28.187Z,17.92
2018-09-18T06:50:55.387Z,20.35
2018-09-18T06:53:22.565Z,13.13
2018-09-18T06:55:49.818Z,16.52
2018-09-18T06:58:17.010Z,16.62
2018-09-18T07:00:44.207Z,17.70
2018-09-18T07:03:11.393Z,18.92
2018-09-18T07:05:38.591Z,16.75
2018-09-18T07:08:05.796Z,17.48
2018-09-18T07:10:32.983Z,18.15
2018-09-18T07:13:00.174Z,15.70
2018-09-18T07:15:27.373Z,15.58
2018-09-18T07:17:54.600Z,13.60
2018-09-18T07:20:21.798Z,17.87
2018-09-18T07:22:48.989Z,15.75
2018-09-18T07:25:16.185Z,15.78
2018-09-18T07:27:43.399Z,14.58
2018-09-18T07:30:10.587Z,18.80
2018-09-18T07:32:37.787Z,17.75
2018-09-18T07:35:05.176Z,18.73
2018-09-18T07:37:32.389Z,14.63
2018-09-18T07:39:59.588Z,20.23
2018-09-18T07:42:26.778Z,18.52
2018-09-18T07:44:54.016Z,17.32
2018-09-18T07:47:21.207Z,14.95
2018-09-18T07:49:48.390Z,15.53
2018-09-18T07:52:15.606Z,22.93
2018-09-18T07:54:42.808Z,13.68
2018-09-18T07:57:09.999Z,18.27
2018-09-18T07:59:37.213Z,21.33
2018-09-18T08:02:04.396Z,19.15
2018-09-18T08:04:31.584Z,14.95
2018-09-18T08:06:58.799Z,14.07
2018-09-18T08:09:25.996Z,17.02
2018-09-18T08:11:53.193Z,14.33
2018-09-18T08:14:20.375Z,19.87
2018-09-18T08:16:47.582Z,13.10
2018-09-18T08:19:14.811Z,19.00
2018-09-18T08:21:42.012Z,16.95
2018-09-18T08:24:09.207Z,19.48
2018-09-18T08:26:36.410Z,13.30
2018-09-18T08:29:03.595Z,16.20
2018-09-18T08:31:30.791Z,14.43
2018-09-18T08:33:57.980Z,16.40
2018-09-18T08:36:25.162Z,15.03
2018-09-18T08:38:52.442Z,16.10
2018-09-18T08:41:19.638Z,13.75
2018-09-18T08:43:46.857Z,20.72
2018-09-18T08:46:14.167Z,13.78
2018-09-18T08:48:46.899Z,13.08
2018-09-18T08:51:14.080Z,13.28
2018-09-18T08:53:41.258Z,18.05
2018-09-18T08:56:08.530Z,17.67
2018-09-18T08:58:35.742Z,15.88
2018-09-18T09:01:02.919Z,14.23
2018-09-18T09:03:30.123Z,12.13
2018-09-18T09:05:57.341Z,13.00
2018-09-18T09:08:24.607Z,14.35
2018-09-18T09:10:51.783Z,13.13
2018-09-18T09:13:18.963Z,15.18
2018-09-18T09:15:46.165Z,11.30
2018-09-18T09:18:13.475Z,12.03
2018-09-18T09:20:40.563Z,11.60
2018-09-18T09:23:07.854Z,13.35
2018-09-18T09:25:35.050Z,11.20
2018-09-18T09:28:02.319Z,16.05
2018-09-18T09:30:29.444Z,11.60
2018-09-18T09:32:56.654Z,11.63
2018-09-18T09:35:23.845Z,13.95
2018-09-18T09:37:51.063Z,13.68
2018-09-18T09:40:18.235Z,10.60
2018-09-18T09:42:45.420Z,9.93
2018-09-18T09:45:12.626Z,11.40
2018-09-18T09:47:39.816Z,11.00
2018-09-18T09:50:07.297Z,13.13
2018-09-18T09:52:34.511Z,11.40
2018-09-18T09:55:01.685Z,14.10
2018-09-18T09:57:28.883Z,12.68
2018-09-18T09:59:56.075Z,10.38
2018-09-18T10:02:28.845Z,11.28
2018-09-18T10:04:56.508Z,11.43
2018-09-18T10:07:23.711Z,9.48
2018-09-18T10:09:50.916Z,11.40
2018-09-18T10:12:18.128Z,11.08
2018-09-18T10:14:45.315Z,12.47
2018-09-18T10:17:12.512Z,12.13
2018-09-18T10:19:39.712Z,10.93
2018-09-18T10:22:06.915Z,11.33
2018-09-18T10:24:34.116Z,10.72
2018-09-18T10:27:01.421Z,11.35
2018-09-18T10:29:28.534Z,10.40
2018-09-18T10:31:55.739Z,13.35
2018-09-18T10:34:23.033Z,15.65
2018-09-18T10:36:50.243Z,9.25
2018-09-18T10:39:17.422Z,12.00
2018-09-18T10:41:44.645Z,9.73
2018-09-18T10:44:11.949Z,10.20
2018-09-18T10:46:39.181Z,8.83
2018-09-18T10:49:06.435Z,11.12
2018-09-18T10:51:33.685Z,10.80
2018-09-18T10:54:00.864Z,8.73
2018-09-18T10:56:28.076Z,8.48
2018-09-18T10:58:55.265Z,8.80
2018-09-18T11:01:22.448Z,6.67
2018-09-18T11:03:49.659Z,8.13
2018-09-18T11:06:16.852Z,9.30
2018-09-18T11:08:44.018Z,7.13
2018-09-18T11:11:11.213Z,7.20
2018-09-18T11:13:38.386Z,8.30
2018-09-18T11:16:05.557Z,7.50
2018-09-18T11:18:32.883Z,7.70
2018-09-18T11:21:06.515Z,7.97
2018-09-18T11:23:33.679Z,7.50
2018-09-18T11:26:00.844Z,7.50
2018-09-18T11:28:28.022Z,6.83
2018-09-18T11:30:55.215Z,8.03
2018-09-18T11:33:22.403Z,9.67
2018-09-18T11:35:49.612Z,9.70
2018-09-18T11:38:16.905Z,7.33
2018-09-18T11:40:44.093Z,8.20
2018-09-18T11:43:11.293Z,7.20
2018-09-18T11:45:38.497Z,9.57
2018-09-18T11:48:05.642Z,6.63
2018-09-18T11:50:32.809Z,6.87
2018-09-18T11:53:00.686Z,6.97
2018-09-18T11:55:27.875Z,6.47
2018-09-18T11:57:55.059Z,6.70
2018-09-18T12:00:22.280Z,10.40
2018-09-18T12:02:49.591Z,7.80
2018-09-18T12:05:16.767Z,6.00
2018-09-18T12:07:43.971Z,5.90
2018-09-18T12:10:11.183Z,5.20
2018-09-18T12:12:38.354Z,4.97
2018-09-18T12:15:05.558Z,7.43
2018-09-18T12:17:32.755Z,10.27
2018-09-18T12:19:59.931Z,6.13
2018-09-18T12:22:27.191Z,4.73
2018-09-18T12:24:54.372Z,7.83
2018-09-18T12:27:21.580Z,7.43
2018-09-18T12:29:48.767Z,3.87
2018-09-18T12:32:15.987Z,5.30
2018-09-18T12:34:43.171Z,4.93
2018-09-18T12:37:10.615Z,4.10
2018-09-18T12:39:37.816Z,9.23
2018-09-18T12:42:05.112Z,4.00
2018-09-18T12:44:32.360Z,4.50
2018-09-18T12:46:59.648Z,5.03
2018-09-18T12:49:26.954Z,3.80
2018-09-18T12:51:54.051Z,5.90
2018-09-18T12:54:21.237Z,5.43
2018-09-18T12:56:48.494Z,3.63
2018-09-18T12:59:15.663Z,5.70
2018-09-18T13:01:42.842Z,4.63
2018-09-18T13:04:10.016Z,3.67
2018-09-18T13:06:37.364Z,4.60
2018-09-18T13:09:06.197Z,4.50
2018-09-18T13:11:33.374Z,5.40
2018-09-18T13:14:00.706Z,4.63
2018-09-18T13:16:27.868Z,3.37
2018-09-18T13:18:55.063Z,5.07
2018-09-18T13:21:22.308Z,5.60
2018-09-18T13:23:49.487Z,4.70
2018-09-18T13:26:16.719Z,2.80
2018-09-18T13:28:43.899Z,3.67
2018-09-18T13:31:11.153Z,3.20
2018-09-18T13:33:38.363Z,3.90
2018-09-18T13:36:05.654Z,4.37
2018-09-18T13:38:32.849Z,3.83
2018-09-18T13:41:00.174Z,5.67
2018-09-18T13:43:27.324Z,3.67
2018-09-18T13:45:54.522Z,3.90
2018-09-18T13:48:21.717Z,3.23
2018-09-18T13:50:48.891Z,3.73
2018-09-18T13:53:16.100Z,3.37
2018-09-18T13:55:43.308Z,3.30
2018-09-18T13:58:10.508Z,5.50
2018-09-18T14:00:37.723Z,3.90
2018-09-18T14:03:04.902Z,3.03
2018-09-18T14:05:32.095Z,4.33
2018-09-18T14:07:59.343Z,2.90
2018-09-18T14:10:26.558Z,3.40
2018-09-18T14:12:53.756Z,3.47
2018-09-18T14:15:21.012Z,3.30
2018-09-18T14:17:48.168Z,5.07
2018-09-18T14:20:15.362Z,4.70
2018-09-18T14:22:42.557Z,4.33
2018-09-18T14:25:09.774Z,3.23
2018-09-18T14:27:36.963Z,2.67
2018-09-18T14:30:04.291Z,2.93
2018-09-18T14:32:31.489Z,3.20
2018-09-18T14:34:58.713Z,3.90
2018-09-18T14:37:25.883Z,2.13
2018-09-18T14:39:53.100Z,3.83
2018-09-18T14:42:20.304Z,2.97
2018-09-18T14:44:47.513Z,3.77
2018-09-18T14:47:14.715Z,2.37
2018-09-18T14:49:41.962Z,3.27
2018-09-18T14:52:09.172Z,6.07
2018-09-18T14:54:36.358Z,2.20
2018-09-18T14:57:03.551Z,2.07
2018-09-18T14:59:30.745Z,4.47
2018-09-18T15:01:58.018Z,3.43
2018-09-18T15:04:25.214Z,3.10
2018-09-18T15:06:52.437Z,4.90
2018-09-18T15:09:19.630Z,4.80
2018-09-18T15:11:46.836Z,2.40
2018-09-18T15:14:14.045Z,2.70
2018-09-18T15:16:41.231Z,2.93
2018-09-18T15:19:08.952Z,7.63
2018-09-18T15:21:36.200Z,3.33
2018-09-18T15:24:03.424Z,2.90
2018-09-18T15:26:30.640Z,2.20
2018-09-18T15:28:57.830Z,3.23
2018-09-18T15:31:25.028Z,4.53
2018-09-18T15:33:52.222Z,1.90
2018-09-18T15:36:19.414Z,4.77
2018-09-18T15:38:46.607Z,2.97
2018-09-18T15:41:13.795Z,2.83
2018-09-18T15:43:40.982Z,3.50
2018-09-18T15:46:08.280Z,4.57
2018-09-18T15:48:35.584Z,5.40
2018-09-18T15:51:02.782Z,3.73
2018-09-18T15:53:29.987Z,3.93
2018-09-18T15:55:57.259Z,3.83
2018-09-18T15:58:24.451Z,2.63
2018-09-18T16:00:51.646Z,2.70
2018-09-18T16:03:18.839Z,3.10
2018-09-18T16:05:46.062Z,4.57
2018-09-18T16:08:13.246Z,4.50
2018-09-18T16:10:40.434Z,2.73
2018-09-18T16:13:07.638Z,3.23
2018-09-18T16:18:02.020Z,3.63
2018-09-18T16:20:29.237Z,3.40
2018-09-18T16:22:56.451Z,4.80
2018-09-18T16:25:23.650Z,2.60
2018-09-18T16:27:50.855Z,3.67
2018-09-18T16:30:18.041Z,4.13
2018-09-18T16:32:45.230Z,2.87
2018-09-18T16:35:12.428Z,5.80
2018-09-18T16:37:39.615Z,5.73
2018-09-18T16:40:06.826Z,3.20
2018-09-18T16:42:34.035Z,2.80
2018-09-18T16:45:01.231Z,3.50
2018-09-18T16:47:28.429Z,4.10
2018-09-18T16:49:55.673Z,5.30
2018-09-18T16:52:22.860Z,4.00
2018-09-18T16:54:50.099Z,5.50
2018-09-18T16:57:17.232Z,4.50
2018-09-18T16:59:44.415Z,4.60
2018-09-18T17:02:11.627Z,4.83
2018-09-18T17:04:38.852Z,5.67
2018-09-18T17:07:05.987Z,7.87
2018-09-18T17:09:33.179Z,6.80
2018-09-18T17:12:00.377Z,3.87
2018-09-18T17:14:27.578Z,4.07
2018-09-18T17:16:54.774Z,5.50
2018-09-18T17:19:21.956Z,4.50
2018-09-18T17:21:49.193Z,4.70
2018-09-18T17:24:16.370Z,4.43
2018-09-18T17:26:43.571Z,4.93
2018-09-18T17:29:10.817Z,15.53
2018-09-18T17:31:37.970Z,4.80
2018-09-18T17:34:05.355Z,5.50
2018-09-18T17:36:32.533Z,6.63
2018-09-18T17:38:59.726Z,4.73
2018-09-18T17:41:26.923Z,4.90
2018-09-18T17:43:54.280Z,4.90
2018-09-18T17:46:21.462Z,9.07
2018-09-18T17:48:48.760Z,6.33
2018-09-18T17:51:15.931Z,6.77
2018-09-18T17:53:43.151Z,5.73
2018-09-18T17:56:10.457Z,4.63
2018-09-18T17:58:37.664Z,5.93
2018-09-18T18:01:04.844Z,8.53
2018-09-18T18:03:32.041Z,8.03
2018-09-18T18:05:59.239Z,17.23
2018-09-18T18:08:26.530Z,18.20
2018-09-18T18:10:53.699Z,9.67
2018-09-18T18:13:20.839Z,8.70
2018-09-18T18:15:48.050Z,7.80
2018-09-18T18:18:15.256Z,22.85
2018-09-18T18:20:42.504Z,16.07
2018-09-18T18:23:09.675Z,22.15
2018-09-18T18:25:36.871Z,13.18
2018-09-18T18:28:04.083Z,13.58
2018-09-18T18:30:31.295Z,14.43
2018-09-18T18:32:58.508Z,10.23
2018-09-18T18:35:25.736Z,12.20
2018-09-18T18:37:52.964Z,23.65
2018-09-18T18:40:20.289Z,40.78
2018-09-18T18:42:47.415Z,15.28
2018-09-18T18:45:14.613Z,16.93
2018-09-18T18:47:41.876Z,12.40
2018-09-18T18:50:09.029Z,12.18
2018-09-18T18:52:36.217Z,10.28
2018-09-18T18:55:03.406Z,10.43
2018-09-18T18:57:30.659Z,7.92
2018-09-18T18:59:57.853Z,9.90
2018-09-18T19:02:25.170Z,16.02
2018-09-18T19:04:52.363Z,9.83
2018-09-18T19:07:19.567Z,11.03
2018-09-18T19:09:46.755Z,13.32
2018-09-18T19:12:14.000Z,13.55
2018-09-18T19:14:41.183Z,13.30
2018-09-18T19:17:08.350Z,8.20
2018-09-18T19:19:35.533Z,10.05
2018-09-18T19:22:02.711Z,8.95
2018-09-18T19:24:30.011Z,12.88
2018-09-18T19:26:57.202Z,11.28
2018-09-18T19:29:24.562Z,9.68
2018-09-18T19:31:51.766Z,11.22
2018-09-18T19:34:18.961Z,7.95
2018-09-18T19:36:46.146Z,10.53
2018-09-18T19:39:13.406Z,13.80
2018-09-18T19:41:40.530Z,11.48
2018-09-18T19:44:08.203Z,11.08
2018-09-18T19:46:35.400Z,9.53
2018-09-18T19:49:02.608Z,9.68
2018-09-18T19:51:29.823Z,12.37
2018-09-18T19:53:57.016Z,14.38
2018-09-18T19:56:24.242Z,12.15
2018-09-18T19:58:51.448Z,9.15
2018-09-18T20:01:18.694Z,8.60
2018-09-18T20:03:45.904Z,8.30
2018-09-18T20:06:13.152Z,11.95
2018-09-18T20:08:40.350Z,9.63
2018-09-18T20:11:07.580Z,9.28
2018-09-18T20:13:34.770Z,11.70
2018-09-18T20:16:01.978Z,7.83
2018-09-18T20:18:29.186Z,11.53
2018-09-18T20:20:56.432Z,9.23
2018-09-18T20:23:23.571Z,10.88
2018-09-18T20:25:50.775Z,11.70
2018-09-18T20:28:17.971Z,12.13
2018-09-18T20:30:45.170Z,7.85
2018-09-18T20:33:12.363Z,9.90
2018-09-18T20:35:39.552Z,9.13
2018-09-18T20:38:06.732Z,8.10
2018-09-18T20:40:34.213Z,8.98
2018-09-18T20:43:01.396Z,7.83
2018-09-18T20:45:28.573Z,6.45
2018-09-18T20:47:55.773Z,10.70
2018-09-18T20:50:23.898Z,9.68
2018-09-18T20:52:51.839Z,12.18
2018-09-18T20:55:19.226Z,9.50
2018-09-18T20:57:46.433Z,12.45
2018-09-18T21:00:13.631Z,10.95
2018-09-18T21:02:40.807Z,11.30
2018-09-18T21:05:08.019Z,10.03
2018-09-18T21:07:35.203Z,15.32
2018-09-18T21:10:02.385Z,11.50
2018-09-18T21:12:29.583Z,12.88
2018-09-18T21:14:56.782Z,10.80
2018-09-18T21:17:23.970Z,9.58
2018-09-18T21:19:51.148Z,10.30
2018-09-18T21:22:18.326Z,10.90
2018-09-18T21:24:45.523Z,9.95
2018-09-18T21:27:12.732Z,14.10
2018-09-18T21:29:39.913Z,10.45
2018-09-18T21:32:07.090Z,7.72
2018-09-18T21:34:34.271Z,10.03
2018-09-18T21:37:01.455Z,9.93
2018-09-18T21:39:28.646Z,9.40
2018-09-18T21:41:55.843Z,10.88
2018-09-18T21:44:23.027Z,11.73
2018-09-18T21:46:50.206Z,16.75
2018-09-18T21:49:17.389Z,13.30
2018-09-18T21:51:44.571Z,11.30
2018-09-18T21:54:11.769Z,10.72
2018-09-18T21:56:38.943Z,11.22
2018-09-18T21:59:06.127Z,11.30
2018-09-18T22:01:33.319Z,10.58
2018-09-18T22:04:00.485Z,9.83
2018-09-18T22:06:27.647Z,8.85
2018-09-18T22:08:54.871Z,9.03
2018-09-18T22:11:22.015Z,11.53
2018-09-18T22:13:49.184Z,12.37
2018-09-18T22:16:16.372Z,8.80
2018-09-18T22:18:43.547Z,10.08
2018-09-18T22:21:10.734Z,9.33
2018-09-18T22:23:37.932Z,9.58
2018-09-18T22:26:05.105Z,9.35
2018-09-18T22:28:32.274Z,14.83
2018-09-18T22:30:59.444Z,11.90
2018-09-18T22:33:26.630Z,10.70
2018-09-18T22:35:53.805Z,9.73
2018-09-18T22:38:21.032Z,11.50
2018-09-18T22:40:48.193Z,11.83
2018-09-18T22:43:15.420Z,15.72
2018-09-18T22:45:42.797Z,13.48
2018-09-18T22:48:09.988Z,9.50
2018-09-18T22:50:37.172Z,9.00
2018-09-18T22:53:04.347Z,9.70
2018-09-18T22:55:31.528Z,13.40
2018-09-18T22:57:58.703Z,10.32
2018-09-18T23:00:25.919Z,10.98
2018-09-18T23:02:53.090Z,14.98
2018-09-18T23:05:20.267Z,15.23
2018-09-18T23:07:47.467Z,11.00
2018-09-18T23:10:14.668Z,12.37
2018-09-18T23:12:41.890Z,10.20
2018-09-18T23:15:09.036Z,12.10
2018-09-18T23:17:36.220Z,11.55
2018-09-18T23:20:03.584Z,9.58
2018-09-18T23:22:30.885Z,9.70
2018-09-18T23:24:58.055Z,10.70
2018-09-18T23:27:25.238Z,12.05
2018-09-18T23:29:52.428Z,11.97
2018-09-18T23:32:19.623Z,11.65
2018-09-18T23:34:46.867Z,9.35
2018-09-18T23:37:14.068Z,17.17
2018-09-18T23:39:41.229Z,14.38
2018-09-18T23:42:08.481Z,14.47
2018-09-18T23:44:35.634Z,13.58
2018-09-18T23:47:02.815Z,12.28
2018-09-18T23:49:29.991Z,11.20
2018-09-18T23:51:57.187Z,11.55
2018-09-18T23:54:24.374Z,10.78
2018-09-18T23:56:51.577Z,10.15
2018-09-18T23:59:18.749Z,9.70
